Time;durP1;ratioP1;P1;durP2;ratioP2;P2;SDS_P1;SDS_P2;PMS_P1;PMS_P2;Temp;Humidity;BMP_temperature;BMP_pressure;BME280_temperature;BME280_humidity;BME280_pressure;Samples;Min_cycle;Max_cycle;Signal;HPM_P1;HPM_P2
2022/11/29 00:01:18;;;;;;;;;;;21.70;60.10;;;;;;1512865;78;1938;-64
2022/11/29 00:03:20;;;;;;;;;;;21.70;60.00;;;;;;1516963;78;1461;-65
2022/11/29 00:05:22;;;;;;;;;;;21.70;59.90;;;;;;1517031;78;781;-64
2022/11/29 00:07:24;;;;;;;;;;;21.70;60.00;;;;;;1517144;77;1138;-64
2022/11/29 00:09:26;;;;;;;;;;;21.70;60.00;;;;;;1516231;78;1080;-65
2022/11/29 00:13:48;;;;;;;;;;;21.80;60.00;;;;;;1516129;78;1644;-64
2022/11/29 00:15:50;;;;;;;;;;;21.80;59.90;;;;;;1517050;78;798;-64
2022/11/29 00:17:52;;;;;;;;;;;21.70;59.90;;;;;;1517112;77;1123;-65
2022/11/29 00:19:54;;;;;;;;;;;21.70;59.90;;;;;;1515178;78;717;-64
2022/11/29 00:21:56;;;;;;;;;;;21.70;60.00;;;;;;1513039;77;1954;-65
2022/11/29 00:23:58;;;;;;;;;;;21.70;60.10;;;;;;1516568;78;739;-65
2022/11/29 00:26:03;;;;;;;;;;;21.70;60.10;;;;;;1517093;77;834;-64
2022/11/29 00:28:05;;;;;;;;;;;21.70;60.00;;;;;;1516389;77;1170;-65
2022/11/29 00:30:07;;;;;;;;;;;21.70;60.00;;;;;;1517085;78;746;-65
2022/11/29 00:32:09;;;;;;;;;;;21.70;60.00;;;;;;1517126;77;758;-64
2022/11/29 00:34:11;;;;;;;;;;;21.70;60.10;;;;;;1516856;78;679;-65
2022/11/29 00:36:13;;;;;;;;;;;21.70;60.10;;;;;;1516879;78;705;-65
2022/11/29 00:38:15;;;;;;;;;;;21.70;60.20;;;;;;1514105;77;1144;-64
2022/11/29 00:40:17;;;;;;;;;;;21.70;60.30;;;;;;1517075;78;1935;-64
2022/11/29 00:42:19;;;;;;;;;;;21.60;60.20;;;;;;1516794;78;688;-65
2022/11/29 00:44:21;;;;;;;;;;;21.70;60.30;;;;;;1516922;78;732;-64
2022/11/29 00:46:24;;;;;;;;;;;21.70;60.20;;;;;;1517015;78;726;-64
2022/11/29 00:48:25;;;;;;;;;;;21.60;60.20;;;;;;1517069;77;1221;-65
2022/11/29 00:50:27;;;;;;;;;;;21.70;60.30;;;;;;1514998;78;785;-64
2022/11/29 00:52:29;;;;;;;;;;;21.60;60.30;;;;;;1517059;78;686;-65
2022/11/29 00:54:31;;;;;;;;;;;21.70;60.30;;;;;;1517088;78;725;-64
2022/11/29 00:56:33;;;;;;;;;;;21.60;60.30;;;;;;1517071;78;691;-64
2022/11/29 00:58:35;;;;;;;;;;;21.70;60.40;;;;;;1516280;77;1124;-67
2022/11/29 01:00:37;;;;;;;;;;;21.70;60.30;;;;;;1516548;78;1915;-66
2022/11/29 01:02:39;;;;;;;;;;;21.70;60.30;;;;;;1514211;78;618;-66
2022/11/29 01:04:41;;;;;;;;;;;21.70;60.40;;;;;;1516699;77;680;-68
2022/11/29 01:06:43;;;;;;;;;;;21.70;60.30;;;;;;1517016;77;653;-66
2022/11/29 01:08:45;;;;;;;;;;;21.70;60.30;;;;;;1516900;77;1139;-71
2022/11/29 01:10:46;;;;;;;;;;;21.70;60.40;;;;;;1514300;77;699;-69
2022/11/29 01:12:48;;;;;;;;;;;21.60;60.50;;;;;;1512315;77;664;-69
2022/11/29 01:14:50;;;;;;;;;;;21.60;60.50;;;;;;1516289;78;721;-72
2022/11/29 01:16:52;;;;;;;;;;;21.50;60.90;;;;;;1514358;77;739;-70
2022/11/29 01:18:54;;;;;;;;;;;21.50;60.90;;;;;;1515354;78;1114;-70
2022/11/29 01:21:00;;;;;;;;;;;21.50;60.90;;;;;;1516434;78;1941;-71
2022/11/29 01:23:02;;;;;;;;;;;21.50;60.90;;;;;;1515852;78;698;-71
2022/11/29 01:25:04;;;;;;;;;;;21.60;60.80;;;;;;1516638;78;684;-70
2022/11/29 01:27:06;;;;;;;;;;;21.60;60.80;;;;;;1516732;77;1131;-69
2022/11/29 01:29:09;;;;;;;;;;;21.60;60.70;;;;;;1551226;73;223861;-62
2022/11/29 01:31:12;;;;;;;;;;;21.60;60.70;;;;;;1556694;75;657;-61
2022/11/29 01:33:14;;;;;;;;;;;21.60;60.80;;;;;;1546206;75;762;-61
2022/11/29 01:35:16;;;;;;;;;;;21.50;60.90;;;;;;1553701;75;873;-60
2022/11/29 01:37:18;;;;;;;;;;;21.50;61.00;;;;;;1542466;76;637;-62
2022/11/29 01:39:20;;;;;;;;;;;21.60;60.90;;;;;;1541618;75;1168;-61
2022/11/29 01:41:22;;;;;;;;;;;21.50;61.00;;;;;;1576961;74;1942;-61
2022/11/29 01:43:24;;;;;;;;;;;21.60;60.90;;;;;;1542938;76;746;-61
2022/11/29 01:45:26;;;;;;;;;;;21.60;60.90;;;;;;1546901;76;681;-60
2022/11/29 01:47:28;;;;;;;;;;;21.50;60.90;;;;;;1583863;74;733;-62
2022/11/29 01:49:31;;;;;;;;;;;21.60;60.90;;;;;;1545184;76;1135;-61
2022/11/29 01:51:34;;;;;;;;;;;21.60;60.90;;;;;;1578957;74;759;-62
2022/11/29 01:53:35;;;;;;;;;;;21.60;60.80;;;;;;1523729;76;761;-62
2022/11/29 01:55:38;;;;;;;;;;;21.60;60.80;;;;;;1559634;75;1457;-60
2022/11/29 01:57:40;;;;;;;;;;;21.60;60.80;;;;;;1574282;74;1162;-61
2022/11/29 01:59:43;;;;;;;;;;;21.60;60.80;;;;;;1537124;75;559;-61
2022/11/29 02:01:45;;;;;;;;;;;21.60;60.80;;;;;;1569220;74;1916;-61
2022/11/29 02:03:47;;;;;;;;;;;21.60;60.80;;;;;;1566064;74;735;-61
2022/11/29 02:05:49;;;;;;;;;;;21.60;60.80;;;;;;1545953;75;717;-62
2022/11/29 02:07:52;;;;;;;;;;;21.60;60.80;;;;;;1570644;74;1145;-61
2022/11/29 02:09:54;;;;;;;;;;;21.60;60.80;;;;;;1539191;75;728;-61
2022/11/29 02:11:58;;;;;;;;;;;21.70;60.80;;;;;;1565144;74;825;-62
2022/11/29 02:14:01;;;;;;;;;;;21.60;60.80;;;;;;1579611;74;729;-62
2022/11/29 02:16:05;;;;;;;;;;;21.70;60.80;;;;;;1533076;75;1078;-61
2022/11/29 02:18:14;;;;;;;;;;;21.60;60.70;;;;;;1561457;74;1745;-61
2022/11/29 02:20:33;;;;;;;;;;;21.60;60.70;;;;;;1592406;74;781;-61
2022/11/29 02:22:53;;;;;;;;;;;21.60;60.70;;;;;;1530800;76;1937;-62
2022/11/29 02:25:14;;;;;;;;;;;21.50;60.80;;;;;;1544788;74;956;-61
2022/11/29 02:27:18;;;;;;;;;;;21.60;60.80;;;;;;1556484;74;676;-59
2022/11/29 02:29:21;;;;;;;;;;;21.50;60.90;;;;;;1560152;74;1808;-61
2022/11/29 02:31:25;;;;;;;;;;;21.60;60.90;;;;;;1575523;74;766;-60
2022/11/29 02:33:34;;;;;;;;;;;21.60;60.90;;;;;;1574158;74;1415;-60
2022/11/29 02:35:54;;;;;;;;;;;21.60;60.90;;;;;;1541594;74;1021;-59
2022/11/29 02:38:01;;;;;;;;;;;21.60;60.90;;;;;;1576088;73;1165;-59
2022/11/29 02:40:13;;;;;;;;;;;21.50;60.90;;;;;;1585138;74;1945;-59
2022/11/29 02:42:16;;;;;;;;;;;21.50;60.90;;;;;;1558220;74;1943;-59
2022/11/29 02:44:26;;;;;;;;;;;21.60;61.20;;;;;;1572998;74;756;-60
2022/11/29 02:46:33;;;;;;;;;;;21.50;61.30;;;;;;1573251;74;1949;-60
2022/11/29 02:48:42;;;;;;;;;;;21.50;61.30;;;;;;1564059;74;1151;-60
2022/11/29 02:50:51;;;;;;;;;;;21.50;61.50;;;;;;1559661;74;1528;-60
2022/11/29 02:53:12;;;;;;;;;;;21.50;61.40;;;;;;1578457;74;1579;-58
2022/11/29 02:55:20;;;;;;;;;;;21.50;61.40;;;;;;1571973;74;651;-59
2022/11/29 02:57:27;;;;;;;;;;;21.50;61.40;;;;;;1571966;74;750;-59
2022/11/29 02:59:31;;;;;;;;;;;21.60;61.40;;;;;;1569205;74;1173;-60
2022/11/29 03:01:37;;;;;;;;;;;21.50;61.40;;;;;;1568633;74;1924;-61
2022/11/29 03:03:44;;;;;;;;;;;21.50;61.40;;;;;;1564002;74;1988;-60
2022/11/29 03:05:50;;;;;;;;;;;21.50;61.40;;;;;;1573041;74;2133;-59
2022/11/29 03:07:56;;;;;;;;;;;21.50;61.40;;;;;;1562160;74;1090;-59
2022/11/29 03:10:00;;;;;;;;;;;21.60;61.40;;;;;;1563526;74;1453;-62
2022/11/29 03:12:20;;;;;;;;;;;21.50;61.40;;;;;;1587100;74;1844;-59
2022/11/29 03:14:32;;;;;;;;;;;21.50;61.40;;;;;;1563204;74;805;-60
2022/11/29 03:16:36;;;;;;;;;;;21.50;61.40;;;;;;1558242;74;2030;-61
2022/11/29 03:18:56;;;;;;;;;;;21.50;61.50;;;;;;1548144;74;1173;-60
2022/11/29 03:21:18;;;;;;;;;;;21.50;61.50;;;;;;1557853;74;1519;-61
2022/11/29 03:23:24;;;;;;;;;;;21.50;61.50;;;;;;1560362;74;749;-59
2022/11/29 03:25:27;;;;;;;;;;;21.50;61.40;;;;;;1577860;74;555;-61
2022/11/29 03:27:31;;;;;;;;;;;21.50;61.50;;;;;;1586084;74;1020;-61
2022/11/29 03:29:34;;;;;;;;;;;21.50;61.50;;;;;;1558690;74;1823;-60
2022/11/29 03:31:41;;;;;;;;;;;21.50;61.50;;;;;;1580472;74;538;-61
2022/11/29 03:33:44;;;;;;;;;;;21.50;61.50;;;;;;1575950;74;1779;-59
2022/11/29 03:36:03;;;;;;;;;;;21.50;61.50;;;;;;1572031;74;688;-61
2022/11/29 03:38:18;;;;;;;;;;;21.60;61.30;;;;;;1491677;77;1178;-59
2022/11/29 03:40:22;;;;;;;;;;;21.60;61.20;;;;;;1543827;74;919;-60
2022/11/29 03:42:25;;;;;;;;;;;21.60;61.20;;;;;;1569187;74;1947;-59
2022/11/29 03:44:27;;;;;;;;;;;21.60;61.40;;;;;;1559007;75;1692;-60
2022/11/29 03:46:43;;;;;;;;;;;21.60;61.30;;;;;;1543774;75;746;-60
2022/11/29 03:48:49;;;;;;;;;;;21.60;61.30;;;;;;1532952;76;1579;-60
2022/11/29 03:50:55;;;;;;;;;;;21.60;61.30;;;;;;1534206;76;732;-61
2022/11/29 03:53:02;;;;;;;;;;;21.60;61.30;;;;;;1575795;74;1912;-61
2022/11/29 03:55:08;;;;;;;;;;;21.50;61.20;;;;;;1552127;75;1940;-61
2022/11/29 03:57:10;;;;;;;;;;;21.60;61.20;;;;;;1543419;75;703;-61
2022/11/29 03:59:30;;;;;;;;;;;21.60;61.20;;;;;;1538128;75;1181;-61
2022/11/29 04:01:43;;;;;;;;;;;21.60;61.10;;;;;;1547809;75;1936;-60
2022/11/29 04:03:56;;;;;;;;;;;21.50;61.20;;;;;;1525803;76;1738;-60
2022/11/29 04:06:05;;;;;;;;;;;21.60;61.20;;;;;;1525141;76;1880;-60
2022/11/29 04:08:21;;;;;;;;;;;21.60;61.20;;;;;;1527913;75;1158;-60
2022/11/29 04:10:30;;;;;;;;;;;21.60;61.20;;;;;;1557004;74;1855;-60
2022/11/29 04:12:40;;;;;;;;;;;21.50;61.10;;;;;;1560720;74;1483;-60
2022/11/29 04:14:52;;;;;;;;;;;21.50;61.20;;;;;;1570101;74;1687;-61
2022/11/29 04:16:56;;;;;;;;;;;21.50;61.30;;;;;;1537495;75;1693;-60
2022/11/29 04:19:05;;;;;;;;;;;21.50;61.30;;;;;;1542678;75;1090;-61
2022/11/29 04:21:12;;;;;;;;;;;21.40;61.30;;;;;;1549704;75;736;-60
2022/11/29 04:23:28;;;;;;;;;;;21.50;61.30;;;;;;1525598;76;1937;-60
2022/11/29 04:25:31;;;;;;;;;;;21.60;61.30;;;;;;1563549;75;1859;-59
2022/11/29 04:27:40;;;;;;;;;;;21.50;61.30;;;;;;1561469;75;777;-60
2022/11/29 04:30:00;;;;;;;;;;;21.60;61.30;;;;;;1546108;75;801;-60
2022/11/29 04:32:07;;;;;;;;;;;21.50;61.40;;;;;;1546704;75;748;-60
2022/11/29 04:34:16;;;;;;;;;;;21.50;61.40;;;;;;1541120;75;711;-61
2022/11/29 04:36:20;;;;;;;;;;;21.50;61.40;;;;;;1555537;75;2154;-60
2022/11/29 04:38:26;;;;;;;;;;;21.50;61.40;;;;;;1516966;76;1276;-61
2022/11/29 04:40:29;;;;;;;;;;;21.50;61.40;;;;;;1566876;75;645;-60
2022/11/29 04:42:49;;;;;;;;;;;21.50;61.40;;;;;;1553992;75;1964;-60
2022/11/29 04:44:56;;;;;;;;;;;21.40;61.40;;;;;;1553695;75;1544;-61
2022/11/29 04:47:00;;;;;;;;;;;21.40;61.40;;;;;;1567038;74;2008;-61
2022/11/29 04:49:06;;;;;;;;;;;21.50;61.50;;;;;;1580226;73;1141;-60
2022/11/29 04:51:19;;;;;;;;;;;21.40;61.40;;;;;;1561313;74;1933;-61
2022/11/29 04:53:25;;;;;;;;;;;21.50;61.40;;;;;;1571373;74;1990;-60
2022/11/29 04:55:31;;;;;;;;;;;21.50;61.40;;;;;;1587490;74;662;-60
2022/11/29 04:57:35;;;;;;;;;;;21.50;61.40;;;;;;1573867;74;773;-61
2022/11/29 04:59:47;;;;;;;;;;;21.50;61.50;;;;;;1575853;73;1957;-61
2022/11/29 05:02:03;;;;;;;;;;;21.50;61.40;;;;;;1569635;74;1995;-62
2022/11/29 05:04:25;;;;;;;;;;;21.50;61.50;;;;;;1563349;74;2160;-62
2022/11/29 05:06:40;;;;;;;;;;;21.50;61.40;;;;;;1566397;74;716;-61
2022/11/29 05:08:47;;;;;;;;;;;21.50;61.50;;;;;;1562317;74;1147;-63
2022/11/29 05:10:53;;;;;;;;;;;21.40;61.60;;;;;;1566544;74;738;-61
2022/11/29 05:13:12;;;;;;;;;;;21.40;61.70;;;;;;1566671;74;1566;-62
2022/11/29 05:15:18;;;;;;;;;;;21.40;61.90;;;;;;1557331;74;704;-62
2022/11/29 05:17:34;;;;;;;;;;;21.30;62.10;;;;;;1566775;74;1926;-62
2022/11/29 05:19:53;;;;;;;;;;;21.20;62.10;;;;;;1577807;74;2130;-62
2022/11/29 05:21:56;;;;;;;;;;;21.20;62.30;;;;;;1567857;74;1966;-62
2022/11/29 05:24:12;;;;;;;;;;;21.20;62.30;;;;;;1552227;74;815;-62
2022/11/29 05:26:24;;;;;;;;;;;21.10;62.50;;;;;;1570397;74;1943;-61
2022/11/29 05:28:44;;;;;;;;;;;21.10;62.70;;;;;;1567983;74;1815;-62
2022/11/29 05:31:03;;;;;;;;;;;21.00;62.80;;;;;;1562285;74;703;-61
2022/11/29 05:33:09;;;;;;;;;;;21.00;62.90;;;;;;1570190;74;938;-60
2022/11/29 05:35:13;;;;;;;;;;;21.00;63.00;;;;;;1563110;74;1722;-62
2022/11/29 05:37:33;;;;;;;;;;;21.00;64.10;;;;;;1564992;74;649;-59
2022/11/29 05:39:42;;;;;;;;;;;21.00;64.60;;;;;;1565831;74;1206;-60
2022/11/29 05:41:58;;;;;;;;;;;20.90;65.50;;;;;;1566375;74;1358;-62
2022/11/29 05:44:13;;;;;;;;;;;20.90;65.40;;;;;;1573364;74;739;-62
2022/11/29 05:46:22;;;;;;;;;;;20.90;65.40;;;;;;1565275;74;641;-60
2022/11/29 05:48:44;;;;;;;;;;;20.80;65.70;;;;;;1576627;74;1119;-59
2022/11/29 05:50:48;;;;;;;;;;;20.90;65.40;;;;;;1564044;74;1866;-60
2022/11/29 05:52:50;;;;;;;;;;;20.90;65.40;;;;;;1575198;74;774;-61
2022/11/29 05:55:11;;;;;;;;;;;20.90;65.30;;;;;;1571890;74;1549;-61
2022/11/29 05:57:31;;;;;;;;;;;20.90;65.30;;;;;;1565699;74;833;-60
2022/11/29 05:59:32;;;;;;;;;;;20.90;65.30;;;;;;1564937;74;1135;-61
2022/11/29 06:01:39;;;;;;;;;;;20.90;65.30;;;;;;1566128;74;793;-61
2022/11/29 06:03:42;;;;;;;;;;;20.90;65.80;;;;;;1571098;74;1938;-58
2022/11/29 06:05:46;;;;;;;;;;;20.90;66.10;;;;;;1563189;74;659;-59
2022/11/29 06:07:55;;;;;;;;;;;20.90;66.10;;;;;;1567366;74;1151;-59
2022/11/29 06:10:02;;;;;;;;;;;21.00;65.90;;;;;;1574102;74;1530;-61
2022/11/29 06:12:06;;;;;;;;;;;21.00;65.70;;;;;;1562533;74;612;-60
2022/11/29 06:14:15;;;;;;;;;;;21.00;65.70;;;;;;1567664;74;696;-59
2022/11/29 06:16:30;;;;;;;;;;;21.00;65.60;;;;;;1566810;74;662;-60
2022/11/29 06:18:43;;;;;;;;;;;21.00;65.40;;;;;;1564771;74;1941;-58
2022/11/29 06:20:46;;;;;;;;;;;21.00;65.20;;;;;;1570564;74;612;-59
2022/11/29 06:22:53;;;;;;;;;;;21.10;65.10;;;;;;1575173;74;1938;-59
2022/11/29 06:25:15;;;;;;;;;;;21.10;65.00;;;;;;1565970;74;1913;-60
2022/11/29 06:27:36;;;;;;;;;;;21.10;64.80;;;;;;1569058;74;1689;-61
2022/11/29 06:29:40;;;;;;;;;;;21.10;64.60;;;;;;1562284;74;1954;-61
2022/11/29 06:31:43;;;;;;;;;;;21.10;64.60;;;;;;1566493;74;1517;-59
2022/11/29 06:33:55;;;;;;;;;;;21.00;64.70;;;;;;1577572;74;717;-60
2022/11/29 06:36:15;;;;;;;;;;;21.10;64.80;;;;;;1572180;74;670;-60
2022/11/29 06:38:19;;;;;;;;;;;21.00;64.70;;;;;;1561331;74;1731;-59
2022/11/29 06:40:21;;;;;;;;;;;21.00;64.60;;;;;;1573258;74;806;-61
2022/11/29 06:42:23;;;;;;;;;;;21.00;64.50;;;;;;1571281;74;1942;-59
2022/11/29 06:44:25;;;;;;;;;;;21.00;64.50;;;;;;1570295;74;693;-59
2022/11/29 06:46:34;;;;;;;;;;;21.10;64.50;;;;;;1575814;74;788;-59
2022/11/29 06:48:37;;;;;;;;;;;21.10;64.30;;;;;;1571565;73;1142;-60
2022/11/29 06:50:47;;;;;;;;;;;21.10;64.30;;;;;;1569872;74;1982;-60
2022/11/29 06:52:53;;;;;;;;;;;21.10;64.10;;;;;;1569175;74;707;-59
2022/11/29 06:55:02;;;;;;;;;;;21.10;63.50;;;;;;1567611;74;1424;-59
2022/11/29 06:57:11;;;;;;;;;;;21.10;63.10;;;;;;1572734;74;1928;-60
2022/11/29 06:59:15;;;;;;;;;;;21.20;62.80;;;;;;1568280;73;1518;-59
2022/11/29 07:01:21;;;;;;;;;;;21.20;62.80;;;;;;1575250;74;1878;-59
2022/11/29 07:03:37;;;;;;;;;;;21.20;63.00;;;;;;1572906;74;2405;-60
2022/11/29 07:05:39;;;;;;;;;;;21.20;63.00;;;;;;1576679;74;1993;-59
2022/11/29 07:07:41;;;;;;;;;;;21.20;63.10;;;;;;1563939;74;1145;-59
2022/11/29 07:09:43;;;;;;;;;;;21.10;63.10;;;;;;1570433;74;702;-59
2022/11/29 07:11:46;;;;;;;;;;;21.10;63.10;;;;;;1569209;74;622;-59
2022/11/29 07:13:48;;;;;;;;;;;21.20;63.10;;;;;;1565840;74;696;-60
2022/11/29 07:15:54;;;;;;;;;;;21.10;63.10;;;;;;1565207;74;693;-60
2022/11/29 07:18:10;;;;;;;;;;;21.20;63.10;;;;;;1573833;74;1143;-61
2022/11/29 07:20:14;;;;;;;;;;;21.20;63.10;;;;;;1558975;74;2038;-59
2022/11/29 07:22:29;;;;;;;;;;;21.10;63.20;;;;;;1562843;74;1724;-59
2022/11/29 07:24:36;;;;;;;;;;;21.20;63.20;;;;;;1576186;74;765;-61
2022/11/29 07:26:42;;;;;;;;;;;21.10;63.20;;;;;;1573732;74;1775;-59
2022/11/29 07:28:48;;;;;;;;;;;21.20;63.20;;;;;;1560743;74;3011;-62
2022/11/29 07:30:52;;;;;;;;;;;21.10;63.20;;;;;;1507907;77;1935;-63
2022/11/29 07:32:58;;;;;;;;;;;21.10;63.20;;;;;;1536504;76;1486;-64
2022/11/29 07:35:02;;;;;;;;;;;21.10;63.30;;;;;;1534476;76;708;-64
2022/11/29 07:37:22;;;;;;;;;;;21.10;63.30;;;;;;1521627;76;726;-64
2022/11/29 07:39:37;;;;;;;;;;;21.10;63.30;;;;;;1535413;76;1190;-64
2022/11/29 07:41:41;;;;;;;;;;;21.10;63.30;;;;;;1531366;76;626;-65
2022/11/29 07:43:50;;;;;;;;;;;21.00;63.20;;;;;;1534072;76;1948;-64
2022/11/29 07:45:52;;;;;;;;;;;21.10;63.40;;;;;;1535522;76;725;-64
2022/11/29 07:47:54;;;;;;;;;;;21.10;63.40;;;;;;1535376;76;1609;-64
2022/11/29 07:49:56;;;;;;;;;;;21.10;63.40;;;;;;1535611;76;722;-64
2022/11/29 07:51:58;;;;;;;;;;;21.10;63.40;;;;;;1533375;76;737;-64
2022/11/29 07:54:00;;;;;;;;;;;21.10;63.50;;;;;;1532202;76;729;-64
2022/11/29 07:56:02;;;;;;;;;;;21.10;63.50;;;;;;1531324;76;713;-64
2022/11/29 07:58:04;;;;;;;;;;;21.00;63.40;;;;;;1540101;76;1144;-64
2022/11/29 08:00:06;;;;;;;;;;;21.10;63.50;;;;;;1531776;76;710;-64
2022/11/29 08:02:09;;;;;;;;;;;21.00;63.40;;;;;;1533464;76;1506;-64
2022/11/29 08:04:12;;;;;;;;;;;21.10;63.50;;;;;;1544679;76;1931;-64
2022/11/29 08:06:14;;;;;;;;;;;21.10;63.50;;;;;;1533350;76;715;-64
2022/11/29 08:08:16;;;;;;;;;;;21.10;63.50;;;;;;1535097;76;1201;-64
2022/11/29 08:10:18;;;;;;;;;;;21.10;63.50;;;;;;1531416;76;695;-64
2022/11/29 08:12:20;;;;;;;;;;;21.00;63.50;;;;;;1532343;76;775;-64
2022/11/29 08:14:21;;;;;;;;;;;21.00;63.50;;;;;;1535590;76;769;-64
2022/11/29 08:16:23;;;;;;;;;;;21.00;63.50;;;;;;1535139;76;1453;-64
2022/11/29 08:18:25;;;;;;;;;;;21.10;63.60;;;;;;1535656;76;1156;-64
2022/11/29 08:20:27;;;;;;;;;;;21.00;63.60;;;;;;1535596;76;726;-64
2022/11/29 08:22:29;;;;;;;;;;;21.10;63.70;;;;;;1533979;76;652;-64
2022/11/29 08:24:31;;;;;;;;;;;20.90;63.60;;;;;;1540150;76;1976;-64
2022/11/29 08:26:33;;;;;;;;;;;21.00;63.60;;;;;;1537644;76;605;-64
2022/11/29 08:28:35;;;;;;;;;;;21.00;63.70;;;;;;1535475;76;1161;-64
2022/11/29 08:30:37;;;;;;;;;;;20.90;63.70;;;;;;1534940;76;1338;-64
2022/11/29 08:32:38;;;;;;;;;;;21.00;63.60;;;;;;1534735;76;635;-64
2022/11/29 08:34:40;;;;;;;;;;;21.00;63.70;;;;;;1534848;76;681;-64
2022/11/29 08:36:42;;;;;;;;;;;21.00;63.60;;;;;;1533454;76;706;-64
2022/11/29 08:38:44;;;;;;;;;;;21.00;63.60;;;;;;1537735;75;1186;-64
2022/11/29 08:40:46;;;;;;;;;;;21.00;63.70;;;;;;1535663;76;548;-64
2022/11/29 08:42:48;;;;;;;;;;;20.90;63.70;;;;;;1532966;76;632;-64
2022/11/29 08:44:50;;;;;;;;;;;20.90;63.70;;;;;;1530492;76;1537;-64
2022/11/29 08:49:11;;;;;;;;;;;21.00;63.70;;;;;;1531727;76;1680;-64
2022/11/29 08:51:13;;;;;;;;;;;21.00;63.70;;;;;;1533845;76;665;-64
2022/11/29 08:55:36;;;;;;;;;;;21.00;63.80;;;;;;1532870;76;1645;-64
2022/11/29 08:57:38;;;;;;;;;;;21.00;63.70;;;;;;1535265;76;1454;-64
2022/11/29 08:59:43;;;;;;;;;;;20.90;63.80;;;;;;1532665;76;970;-64
2022/11/29 09:01:43;;;;;;;;;;;21.00;63.80;;;;;;1533955;76;1622;-64
2022/11/29 09:04:06;;;;;;;;;;;21.00;63.70;;;;;;1537058;76;1943;-65
2022/11/29 09:06:08;;;;;;;;;;;20.90;63.80;;;;;;1530947;76;1418;-64
2022/11/29 09:08:10;;;;;;;;;;;20.90;63.80;;;;;;1533983;76;1682;-64
2022/11/29 09:10:12;;;;;;;;;;;21.00;63.80;;;;;;1534945;76;667;-64
2022/11/29 09:12:14;;;;;;;;;;;21.00;63.80;;;;;;1532709;76;1612;-64
2022/11/29 09:14:16;;;;;;;;;;;21.00;63.80;;;;;;1540350;76;710;-64
2022/11/29 09:16:19;;;;;;;;;;;20.90;63.80;;;;;;1534249;76;754;-64
2022/11/29 09:18:21;;;;;;;;;;;20.90;63.80;;;;;;1535799;76;1146;-64
2022/11/29 09:20:24;;;;;;;;;;;21.00;63.80;;;;;;1533564;76;770;-64
2022/11/29 09:22:26;;;;;;;;;;;20.90;63.80;;;;;;1534022;76;754;-64
2022/11/29 09:24:27;;;;;;;;;;;20.90;63.80;;;;;;1535489;76;1943;-64
2022/11/29 09:26:30;;;;;;;;;;;21.00;63.80;;;;;;1535425;76;1491;-64
2022/11/29 09:28:32;;;;;;;;;;;20.90;63.80;;;;;;1532244;76;1157;-64
2022/11/29 09:30:36;;;;;;;;;;;21.00;63.80;;;;;;1535455;76;1124;-64
2022/11/29 09:32:37;;;;;;;;;;;20.90;63.80;;;;;;1534388;76;1424;-64
2022/11/29 09:34:40;;;;;;;;;;;20.90;63.90;;;;;;1534825;76;658;-64
2022/11/29 09:36:46;;;;;;;;;;;21.00;63.90;;;;;;1533798;76;994;-64
2022/11/29 09:38:48;;;;;;;;;;;20.90;63.90;;;;;;1534614;76;1204;-64
2022/11/29 09:40:57;;;;;;;;;;;20.90;63.90;;;;;;1535327;76;1486;-64
2022/11/29 09:43:01;;;;;;;;;;;20.90;63.90;;;;;;1511628;76;1022;-65
2022/11/29 09:45:19;;;;;;;;;;;20.90;63.90;;;;;;1511559;76;1941;-64
2022/11/29 09:47:30;;;;;;;;;;;20.90;63.80;;;;;;1534391;76;955;-65
2022/11/29 09:49:37;;;;;;;;;;;20.90;63.90;;;;;;1535712;76;1103;-65
2022/11/29 09:51:40;;;;;;;;;;;20.90;63.80;;;;;;1530310;76;1168;-64
2022/11/29 09:53:50;;;;;;;;;;;20.90;63.80;;;;;;1532600;76;1816;-64
2022/11/29 09:56:11;;;;;;;;;;;21.00;63.80;;;;;;1538420;76;728;-64
2022/11/29 09:58:14;;;;;;;;;;;20.90;63.80;;;;;;1529931;76;1137;-65
2022/11/29 10:00:18;;;;;;;;;;;20.90;63.80;;;;;;1531835;76;738;-64
2022/11/29 10:02:23;;;;;;;;;;;20.90;63.80;;;;;;1533825;76;715;-65
2022/11/29 10:04:26;;;;;;;;;;;20.90;63.80;;;;;;1535429;76;1908;-64
2022/11/29 10:06:35;;;;;;;;;;;20.90;63.80;;;;;;1535747;76;763;-64
2022/11/29 10:08:36;;;;;;;;;;;20.90;63.80;;;;;;1532443;76;1547;-65
2022/11/29 10:10:45;;;;;;;;;;;20.90;63.80;;;;;;1535166;76;1078;-65
2022/11/29 10:12:48;;;;;;;;;;;20.90;63.80;;;;;;1533328;76;773;-65
2022/11/29 10:14:51;;;;;;;;;;;20.90;63.70;;;;;;1535200;76;630;-65
2022/11/29 10:17:07;;;;;;;;;;;20.90;63.70;;;;;;1517571;76;573;-66
2022/11/29 10:19:11;;;;;;;;;;;20.90;63.70;;;;;;1526499;76;1561;-65
2022/11/29 10:21:14;;;;;;;;;;;20.90;63.70;;;;;;1535395;76;717;-65
2022/11/29 10:23:24;;;;;;;;;;;20.90;63.70;;;;;;1535869;76;1514;-65
2022/11/29 10:25:27;;;;;;;;;;;20.90;63.70;;;;;;1533166;76;681;-64
2022/11/29 10:27:30;;;;;;;;;;;20.90;63.70;;;;;;1534767;76;1703;-64
2022/11/29 10:29:31;;;;;;;;;;;20.90;63.70;;;;;;1535363;76;1121;-64
2022/11/29 10:31:38;;;;;;;;;;;20.90;63.70;;;;;;1500124;77;817;-64
2022/11/29 10:33:39;;;;;;;;;;;20.90;63.70;;;;;;1555282;75;691;-65
2022/11/29 10:35:41;;;;;;;;;;;20.90;63.80;;;;;;1556574;75;1491;-65
2022/11/29 10:37:43;;;;;;;;;;;20.90;64.00;;;;;;1555807;75;1144;-65
2022/11/29 10:39:53;;;;;;;;;;;20.90;64.10;;;;;;1560572;75;745;-65
2022/11/29 10:41:55;;;;;;;;;;;20.80;64.10;;;;;;1547452;75;1713;-64
2022/11/29 10:43:58;;;;;;;;;;;20.80;64.20;;;;;;1558025;75;1917;-64
2022/11/29 10:46:01;;;;;;;;;;;20.80;64.30;;;;;;1556992;75;692;-65
2022/11/29 10:48:12;;;;;;;;;;;20.80;64.40;;;;;;1556874;75;1164;-65
2022/11/29 10:50:17;;;;;;;;;;;20.80;64.40;;;;;;1558942;75;1492;-65
2022/11/29 10:52:22;;;;;;;;;;;20.80;64.50;;;;;;1548151;75;681;-65
2022/11/29 10:54:25;;;;;;;;;;;20.80;64.50;;;;;;1558300;75;704;-65
2022/11/29 10:56:28;;;;;;;;;;;20.80;64.60;;;;;;1558631;75;1761;-65
2022/11/29 10:58:30;;;;;;;;;;;20.80;64.60;;;;;;1558067;75;1122;-64
2022/11/29 11:00:32;;;;;;;;;;;20.80;64.60;;;;;;1556546;75;591;-65
2022/11/29 11:02:33;;;;;;;;;;;20.80;64.80;;;;;;1536081;76;1046;-65
2022/11/29 11:04:36;;;;;;;;;;;20.80;64.80;;;;;;1558542;75;1939;-65
2022/11/29 11:06:42;;;;;;;;;;;20.80;64.80;;;;;;1559246;75;687;-65
2022/11/29 11:08:45;;;;;;;;;;;20.80;64.80;;;;;;1558775;75;1245;-65
2022/11/29 11:10:49;;;;;;;;;;;20.80;64.80;;;;;;1560707;74;1678;-65
2022/11/29 11:13:01;;;;;;;;;;;20.80;64.70;;;;;;1558344;75;1827;-65
2022/11/29 11:15:14;;;;;;;;;;;20.80;64.70;;;;;;1559644;75;678;-65
2022/11/29 11:17:18;;;;;;;;;;;20.80;64.70;;;;;;1559759;75;698;-65
2022/11/29 11:19:30;;;;;;;;;;;20.80;64.80;;;;;;1553189;75;1708;-64
2022/11/29 11:21:32;;;;;;;;;;;20.80;64.80;;;;;;1559771;75;648;-64
2022/11/29 11:23:35;;;;;;;;;;;20.80;64.80;;;;;;1556609;75;629;-65
2022/11/29 11:25:38;;;;;;;;;;;20.80;64.80;;;;;;1559046;75;1927;-64
2022/11/29 11:27:40;;;;;;;;;;;20.80;64.90;;;;;;1547455;75;1095;-64
2022/11/29 11:29:42;;;;;;;;;;;20.80;64.80;;;;;;1556969;75;684;-65
2022/11/29 11:31:45;;;;;;;;;;;20.80;64.90;;;;;;1559255;75;1415;-65
2022/11/29 11:33:47;;;;;;;;;;;20.80;64.80;;;;;;1559567;75;892;-64
2022/11/29 11:36:03;;;;;;;;;;;20.80;64.80;;;;;;1569575;75;706;-64
2022/11/29 11:38:04;;;;;;;;;;;20.80;64.80;;;;;;1553145;75;1160;-65
2022/11/29 11:40:19;;;;;;;;;;;20.80;64.80;;;;;;1559295;75;717;-65
2022/11/29 11:42:39;;;;;;;;;;;20.80;64.80;;;;;;1551742;75;789;-64
2022/11/29 11:44:48;;;;;;;;;;;20.80;64.90;;;;;;1559789;75;1893;-64
2022/11/29 11:46:48;;;;;;;;;;;20.80;64.90;;;;;;1559271;75;1507;-65
2022/11/29 11:48:50;;;;;;;;;;;20.80;64.80;;;;;;1559303;75;1153;-64
2022/11/29 11:50:53;;;;;;;;;;;20.80;64.90;;;;;;1556466;75;686;-63
2022/11/29 11:52:59;;;;;;;;;;;20.80;64.80;;;;;;1555547;75;685;-65
2022/11/29 11:55:02;;;;;;;;;;;20.80;64.90;;;;;;1559310;75;870;-65
2022/11/29 11:57:03;;;;;;;;;;;20.80;64.80;;;;;;1557824;75;745;-65
2022/11/29 11:59:05;;;;;;;;;;;20.80;64.90;;;;;;1558231;75;1140;-65
2022/11/29 12:01:14;;;;;;;;;;;20.80;64.80;;;;;;1558702;75;1493;-64
2022/11/29 12:03:30;;;;;;;;;;;20.80;64.80;;;;;;1556843;75;670;-65
2022/11/29 12:05:32;;;;;;;;;;;20.90;64.90;;;;;;1557748;75;1926;-65
2022/11/29 12:07:44;;;;;;;;;;;20.80;64.70;;;;;;1561481;75;756;-65
2022/11/29 12:09:48;;;;;;;;;;;20.90;64.80;;;;;;1559164;75;786;-65
2022/11/29 12:12:00;;;;;;;;;;;20.80;64.70;;;;;;1559316;75;697;-65
2022/11/29 12:14:02;;;;;;;;;;;20.90;64.90;;;;;;1554771;75;1338;-64
2022/11/29 12:16:05;;;;;;;;;;;20.90;64.80;;;;;;1542204;76;681;-64
2022/11/29 12:18:15;;;;;;;;;;;20.80;64.70;;;;;;1558168;75;1106;-64
2022/11/29 12:20:24;;;;;;;;;;;20.80;64.70;;;;;;1559478;75;695;-65
2022/11/29 12:22:27;;;;;;;;;;;20.80;64.70;;;;;;1555862;75;807;-64
2022/11/29 12:24:30;;;;;;;;;;;20.80;64.70;;;;;;1558343;75;1931;-65
2022/11/29 12:26:33;;;;;;;;;;;20.80;64.80;;;;;;1553977;75;707;-64
2022/11/29 12:28:37;;;;;;;;;;;20.80;64.80;;;;;;1558506;75;1516;-65
2022/11/29 12:30:40;;;;;;;;;;;20.80;64.80;;;;;;1559703;75;1842;-64
2022/11/29 12:32:55;;;;;;;;;;;20.80;64.80;;;;;;1560788;75;797;-64
2022/11/29 12:35:02;;;;;;;;;;;20.80;64.80;;;;;;1556761;75;667;-64
2022/11/29 12:37:22;;;;;;;;;;;20.80;64.80;;;;;;1557635;75;1916;-64